KLSF

Lawson AAF (Fort Benning) Airport

Fort Benning(Columbus), Georgia, USA
METAR KLSF 140358Z AUTO 29005KT 10SM -DZ OVC008 11/11 A3019 RMK AO2 DZB58 SLP229
Observed Flight Rules
Nov-14 @ 03:58 UTC (51 minutes ago) Instrument Flight Rules
Wind Visibility Clouds Conditions
290° at 5 knots 10 miles
  • Overcast at 800' AGL
  • Light Drizzle
Temperatures Readings
Current 11°C / 52°F
Dewpoint 11°C / 52°F
Humidity 100%
Altimeter 30.19" Hg
Pressure 1022.9 hPa
Elevation 71
METAR KLSF 140358Z AUTO 29005KT 10SM -DZ OVC008 11/11 A3019 RMK AO2 DZB58 SLP229
Observed Flight Rules
Nov-14 @ 03:58 UTC
(51 minutes ago)
IFR
Wind Visibility
290° at 5 knots 10 miles
Clouds
  • Overcast at 800' AGL
Conditions
  • Light Drizzle
Temperature Dewpoint
11°C / 52°F 11°C / 52°F
Humidity Altimeter Pressure
100% 30.19" Hg 1022.9 hPa